createdAt,value
2018-06-21T00:00:36.503Z,1.20
2018-06-21T00:03:04.124Z,1.30
2018-06-21T00:05:46.331Z,1.13
2018-06-21T00:08:13.897Z,1.30
2018-06-21T00:10:41.433Z,1.20
2018-06-21T00:13:08.983Z,1.40
2018-06-21T00:15:36.799Z,1.20
2018-06-21T00:18:04.659Z,1.40
2018-06-21T00:20:32.166Z,1.40
2018-06-21T00:22:59.919Z,1.20
2018-06-21T00:25:35.816Z,1.27
2018-06-21T00:28:03.414Z,1.03
2018-06-21T00:30:30.987Z,0.97
2018-06-21T00:32:58.655Z,1.20
2018-06-21T00:35:27.058Z,1.07
2018-06-21T00:37:54.664Z,1.10
2018-06-21T00:40:23.515Z,1.30
2018-06-21T00:42:51.251Z,1.10
2018-06-21T00:45:18.788Z,1.27
2018-06-21T00:47:46.290Z,1.20
2018-06-21T00:50:13.845Z,1.00
2018-06-21T00:52:41.463Z,1.10
2018-06-21T00:55:09.107Z,1.10
2018-06-21T00:57:36.695Z,1.57
2018-06-21T01:00:04.386Z,1.30
2018-06-21T01:02:31.979Z,1.40
2018-06-21T01:04:59.560Z,1.17
2018-06-21T01:07:27.103Z,1.00
2018-06-21T01:09:54.715Z,0.90
2018-06-21T01:12:22.903Z,1.20
2018-06-21T01:14:52.183Z,0.90
2018-06-21T01:17:19.798Z,1.10
2018-06-21T01:19:47.365Z,1.40
2018-06-21T01:22:14.948Z,1.23
2018-06-21T01:24:44.360Z,1.20
2018-06-21T01:27:11.936Z,2.17
2018-06-21T01:29:39.472Z,1.40
2018-06-21T01:32:07.415Z,2.07
2018-06-21T01:34:36.019Z,1.77
2018-06-21T01:37:03.725Z,1.40
2018-06-21T01:39:33.340Z,1.03
2018-06-21T01:42:00.978Z,1.20
2018-06-21T01:44:28.550Z,1.30
2018-06-21T01:46:56.134Z,1.50
2018-06-21T01:49:23.938Z,1.30
2018-06-21T01:51:51.483Z,2.70
2018-06-21T01:54:19.039Z,2.40
2018-06-21T01:56:46.574Z,2.00
2018-06-21T01:59:14.115Z,1.60
2018-06-21T02:01:41.637Z,1.30
2018-06-21T02:04:09.183Z,1.57
2018-06-21T02:06:36.683Z,1.30
2018-06-21T02:09:06.645Z,1.30
2018-06-21T02:11:34.183Z,1.00
2018-06-21T02:14:01.780Z,1.30
2018-06-21T02:16:29.560Z,1.23
2018-06-21T02:18:57.087Z,1.67
2018-06-21T02:21:24.614Z,1.60
2018-06-21T02:23:52.282Z,1.20
2018-06-21T02:26:19.756Z,1.33
2018-06-21T02:28:47.313Z,1.37
2018-06-21T02:34:15.347Z,1.30
2018-06-21T02:36:42.859Z,1.10
2018-06-21T02:39:10.480Z,0.90
2018-06-21T02:41:38.133Z,0.90
2018-06-21T02:44:05.761Z,1.30
2018-06-21T02:46:33.378Z,1.10
2018-06-21T02:49:00.950Z,1.40
2018-06-21T02:51:37.199Z,1.30
2018-06-21T02:54:04.805Z,1.50
2018-06-21T02:56:39.069Z,1.10
2018-06-21T02:59:11.571Z,1.33
2018-06-21T03:01:40.149Z,0.93
2018-06-21T03:04:07.742Z,1.50
2018-06-21T03:06:35.539Z,3.30
2018-06-21T03:09:04.760Z,2.00
2018-06-21T03:11:32.560Z,1.43
2018-06-21T03:14:01.343Z,1.60
2018-06-21T03:16:28.918Z,1.77
2018-06-21T03:18:56.508Z,1.50
2018-06-21T03:21:24.107Z,1.00
2018-06-21T03:23:57.229Z,1.00
2018-06-21T03:26:25.133Z,1.00
2018-06-21T03:28:53.762Z,1.23
2018-06-21T03:31:21.389Z,1.33
2018-06-21T03:33:48.972Z,1.43
2018-06-21T03:36:16.556Z,1.20
2018-06-21T03:38:44.179Z,1.30
2018-06-21T03:41:11.774Z,1.27
2018-06-21T03:43:39.374Z,2.57
2018-06-21T03:46:06.949Z,1.90
2018-06-21T03:48:35.771Z,1.37
2018-06-21T03:51:03.464Z,1.60
2018-06-21T03:53:31.064Z,3.03
2018-06-21T03:55:59.184Z,1.40
2018-06-21T03:58:26.907Z,1.70
2018-06-21T04:00:58.387Z,2.10
2018-06-21T04:03:26.158Z,1.40
2018-06-21T04:05:53.746Z,1.40
2018-06-21T04:08:21.326Z,1.40
2018-06-21T04:10:49.050Z,1.13
2018-06-21T04:13:16.735Z,1.77
2018-06-21T04:15:44.328Z,1.30
2018-06-21T04:18:11.999Z,1.47
2018-06-21T04:20:40.710Z,1.70
2018-06-21T04:23:08.541Z,1.53
2018-06-21T04:25:36.722Z,1.23
2018-06-21T04:28:04.757Z,1.60
2018-06-21T04:30:32.563Z,1.37
2018-06-21T04:33:00.361Z,2.00
2018-06-21T04:35:28.066Z,2.20
2018-06-21T04:37:55.741Z,2.90
2018-06-21T04:40:23.392Z,3.20
2018-06-21T04:42:51.427Z,3.37
2018-06-21T04:45:19.111Z,3.00
2018-06-21T04:47:46.725Z,2.60
2018-06-21T04:50:14.788Z,3.10
2018-06-21T04:52:42.437Z,2.70
2018-06-21T04:55:09.919Z,4.73
2018-06-21T04:57:37.541Z,4.57
2018-06-21T05:00:05.334Z,4.73
2018-06-21T05:02:32.997Z,4.90
2018-06-21T05:05:00.619Z,4.90
2018-06-21T05:07:28.499Z,4.50
2018-06-21T05:09:56.134Z,4.70
2018-06-21T05:12:23.712Z,4.50
2018-06-21T05:14:52.484Z,5.10
2018-06-21T05:17:20.108Z,4.77
2018-06-21T05:19:47.980Z,4.10
2018-06-21T05:22:15.586Z,4.10
2018-06-21T05:24:43.308Z,4.27
2018-06-21T05:27:11.172Z,4.63
2018-06-21T05:29:38.784Z,4.50
2018-06-21T05:32:06.345Z,4.60
2018-06-21T05:34:33.936Z,5.20
2018-06-21T05:37:01.567Z,4.27
2018-06-21T05:39:29.261Z,4.00
2018-06-21T05:41:56.795Z,4.13
2018-06-21T05:44:25.441Z,4.00
2018-06-21T05:46:53.069Z,4.83
2018-06-21T05:49:20.639Z,5.00
2018-06-21T05:51:48.237Z,3.87
2018-06-21T05:54:15.880Z,4.23
2018-06-21T05:56:43.700Z,4.50
2018-06-21T05:59:11.283Z,4.63
2018-06-21T06:01:38.864Z,4.53
2018-06-21T06:04:06.596Z,4.80
2018-06-21T06:06:34.118Z,4.43
2018-06-21T06:09:01.771Z,4.10
2018-06-21T06:11:29.354Z,4.27
2018-06-21T06:13:56.954Z,4.40
2018-06-21T06:16:24.565Z,4.53
2018-06-21T06:18:52.267Z,4.47
2018-06-21T06:21:19.880Z,4.77
2018-06-21T06:23:47.456Z,4.27
2018-06-21T06:26:15.024Z,4.40
2018-06-21T06:28:42.837Z,4.17
2018-06-21T06:31:10.377Z,3.97
2018-06-21T06:33:37.967Z,4.17
2018-06-21T06:36:05.608Z,4.47
2018-06-21T06:38:33.212Z,3.90
2018-06-21T06:41:04.789Z,3.63
2018-06-21T06:43:32.385Z,3.13
2018-06-21T06:46:00.016Z,3.60
2018-06-21T06:48:27.618Z,3.47
2018-06-21T06:50:55.696Z,3.50
2018-06-21T06:53:23.550Z,3.70
2018-06-21T06:55:51.320Z,3.20
2018-06-21T06:58:18.944Z,3.50
2018-06-21T07:00:46.541Z,3.27
2018-06-21T07:03:14.116Z,3.33
2018-06-21T07:05:41.711Z,3.40
2018-06-21T07:08:09.311Z,3.43
2018-06-21T07:10:36.945Z,2.90
2018-06-21T07:13:04.508Z,2.93
2018-06-21T07:15:32.077Z,2.87
2018-06-21T07:17:59.641Z,3.33
2018-06-21T07:20:27.419Z,3.60
2018-06-21T07:22:54.980Z,3.20
2018-06-21T07:25:22.571Z,2.90
2018-06-21T07:27:50.184Z,3.13
2018-06-21T07:30:17.784Z,2.80
2018-06-21T07:32:45.416Z,3.03
2018-06-21T07:38:13.156Z,2.53
2018-06-21T07:40:40.761Z,3.00
2018-06-21T07:43:08.473Z,2.63
2018-06-21T07:45:36.065Z,3.40
2018-06-21T07:48:03.620Z,3.27
2018-06-21T07:50:31.299Z,2.93
2018-06-21T07:52:58.895Z,2.50
2018-06-21T07:55:26.539Z,2.40
2018-06-21T07:57:54.361Z,2.63
2018-06-21T08:00:22.118Z,2.57
2018-06-21T08:02:49.699Z,2.40
2018-06-21T08:05:17.313Z,2.13
2018-06-21T08:07:45.124Z,2.63
2018-06-21T08:10:12.969Z,2.10
2018-06-21T08:12:40.530Z,2.13
2018-06-21T08:15:08.388Z,1.97
2018-06-21T08:17:36.015Z,2.10
2018-06-21T08:20:03.628Z,2.27
2018-06-21T08:22:31.193Z,2.20
2018-06-21T08:24:58.869Z,2.10
2018-06-21T08:27:26.720Z,2.10
2018-06-21T08:29:54.389Z,1.93
2018-06-21T08:32:21.974Z,2.03
2018-06-21T08:34:49.544Z,2.10
2018-06-21T08:37:17.165Z,1.73
2018-06-21T08:39:44.781Z,2.10
2018-06-21T08:42:12.391Z,2.00
2018-06-21T08:44:40.051Z,1.97
2018-06-21T08:47:07.660Z,2.00
2018-06-21T08:49:35.332Z,2.10
2018-06-21T08:52:03.035Z,2.30
2018-06-21T08:54:30.938Z,1.90
2018-06-21T08:56:58.774Z,1.90
2018-06-21T08:59:26.385Z,2.20
2018-06-21T09:01:53.983Z,1.90
2018-06-21T09:04:21.815Z,1.70
2018-06-21T09:06:49.405Z,2.20
2018-06-21T09:09:16.972Z,2.25
2018-06-21T09:11:44.551Z,1.90
2018-06-21T09:14:12.147Z,1.90
2018-06-21T09:16:39.720Z,1.80
2018-06-21T09:19:07.329Z,2.30
2018-06-21T09:21:34.917Z,2.00
2018-06-21T09:24:02.728Z,1.72
2018-06-21T09:26:30.283Z,1.80
2018-06-21T09:28:57.917Z,1.90
2018-06-21T09:31:25.542Z,1.87
2018-06-21T09:33:53.515Z,1.80
2018-06-21T09:36:21.097Z,1.82
2018-06-21T09:38:54.488Z,1.60
2018-06-21T09:41:27.823Z,1.90
2018-06-21T09:44:03.826Z,1.52
2018-06-21T09:46:34.411Z,2.02
2018-06-21T09:49:01.722Z,1.60
2018-06-21T09:51:30.283Z,1.52
2018-06-21T09:53:57.818Z,1.80
2018-06-21T09:56:25.943Z,2.00
2018-06-21T09:58:54.083Z,1.75
2018-06-21T10:01:21.822Z,1.87
2018-06-21T10:03:49.379Z,1.87
2018-06-21T10:06:16.972Z,1.98
2018-06-21T10:08:44.584Z,2.15
2018-06-21T10:11:12.209Z,1.90
2018-06-21T10:13:39.775Z,1.85
2018-06-21T10:16:07.364Z,2.40
2018-06-21T10:18:34.920Z,2.00
2018-06-21T10:21:02.500Z,2.00
2018-06-21T10:23:30.061Z,2.42
2018-06-21T10:25:57.609Z,2.25
2018-06-21T10:28:25.158Z,2.17
2018-06-21T10:30:53.329Z,2.57
2018-06-21T10:33:20.929Z,1.93
2018-06-21T10:35:48.692Z,2.57
2018-06-21T10:38:16.260Z,2.07
2018-06-21T10:40:43.841Z,2.43
2018-06-21T10:43:11.403Z,2.30
2018-06-21T10:45:39.092Z,1.70
2018-06-21T10:48:06.708Z,2.40
2018-06-21T10:50:34.217Z,2.23
2018-06-21T10:53:01.876Z,1.70
2018-06-21T10:55:30.440Z,2.33
2018-06-21T10:57:58.018Z,2.10
2018-06-21T11:00:25.696Z,2.13
2018-06-21T11:02:53.988Z,1.92
2018-06-21T11:05:21.637Z,2.40
2018-06-21T11:07:49.469Z,1.60
2018-06-21T11:10:18.067Z,1.62
2018-06-21T11:12:45.790Z,2.00
2018-06-21T11:15:13.541Z,2.17
2018-06-21T11:17:43.250Z,2.45
2018-06-21T11:20:10.844Z,2.50
2018-06-21T11:22:38.421Z,2.40
2018-06-21T11:25:06.021Z,2.43
2018-06-21T11:27:33.589Z,2.50
2018-06-21T11:30:01.205Z,2.90
2018-06-21T11:32:28.859Z,2.47
2018-06-21T11:34:56.461Z,2.87
2018-06-21T11:37:24.110Z,3.27
2018-06-21T11:39:51.740Z,2.80
2018-06-21T11:42:19.300Z,3.10
2018-06-21T11:44:46.880Z,2.77
2018-06-21T11:47:14.547Z,3.20
2018-06-21T11:49:42.112Z,3.07
2018-06-21T11:52:09.695Z,3.07
2018-06-21T11:54:37.316Z,3.50
2018-06-21T11:57:09.888Z,3.10
2018-06-21T11:59:37.460Z,2.97
2018-06-21T12:02:05.208Z,2.97
2018-06-21T12:04:33.470Z,2.77
2018-06-21T12:07:01.052Z,3.20
2018-06-21T12:09:28.703Z,3.10
2018-06-21T12:11:56.311Z,3.00
2018-06-21T12:14:23.869Z,3.13
2018-06-21T12:16:51.440Z,3.43
2018-06-21T12:19:19.029Z,2.73
2018-06-21T12:21:46.598Z,2.93
2018-06-21T12:24:14.205Z,2.93
2018-06-21T12:26:41.766Z,2.60
2018-06-21T12:29:09.572Z,2.83
2018-06-21T12:31:37.135Z,2.50
2018-06-21T12:34:04.785Z,2.93
2018-06-21T12:36:32.525Z,3.00
2018-06-21T12:39:00.097Z,3.13
2018-06-21T12:41:27.670Z,2.40
2018-06-21T12:43:55.306Z,2.90
2018-06-21T12:46:22.874Z,2.27
2018-06-21T12:48:50.436Z,2.70
2018-06-21T12:51:19.132Z,2.90
2018-06-21T12:53:46.698Z,2.93
2018-06-21T12:56:14.293Z,3.30
2018-06-21T12:58:41.900Z,3.20
2018-06-21T13:01:09.528Z,2.90
2018-06-21T13:03:37.159Z,3.03
2018-06-21T13:06:04.772Z,2.97
2018-06-21T13:08:43.906Z,3.00
2018-06-21T13:11:35.582Z,2.93
2018-06-21T13:14:14.800Z,2.40
2018-06-21T13:16:43.210Z,2.87
2018-06-21T13:19:10.820Z,2.77
2018-06-21T13:21:38.412Z,2.83
2018-06-21T13:24:06.085Z,2.83
2018-06-21T13:26:33.683Z,3.17
2018-06-21T13:29:01.254Z,2.90
2018-06-21T13:31:28.920Z,2.77
2018-06-21T13:33:56.708Z,2.60
2018-06-21T13:36:24.314Z,2.77
2018-06-21T13:38:52.001Z,2.50
2018-06-21T13:41:19.561Z,2.70
2018-06-21T13:43:47.116Z,2.43
2018-06-21T13:46:14.753Z,2.60
2018-06-21T13:48:42.331Z,2.57
2018-06-21T13:51:09.925Z,2.40
2018-06-21T13:53:37.648Z,2.17
2018-06-21T13:56:05.297Z,2.40
2018-06-21T13:58:32.880Z,2.57
2018-06-21T14:01:00.502Z,2.30
2018-06-21T14:03:28.073Z,2.30
2018-06-21T14:05:55.652Z,2.13
2018-06-21T14:08:23.318Z,1.77
2018-06-21T14:10:50.820Z,2.30
2018-06-21T14:13:18.441Z,1.80
2018-06-21T14:15:46.027Z,1.70
2018-06-21T14:18:13.596Z,1.73
2018-06-21T14:20:41.330Z,1.53
2018-06-21T14:23:09.110Z,1.73
2018-06-21T14:25:36.986Z,1.33
2018-06-21T14:28:04.600Z,1.47
2018-06-21T14:30:32.944Z,1.77
2018-06-21T14:33:00.654Z,1.00
2018-06-21T14:35:28.269Z,1.30
2018-06-21T14:37:55.893Z,1.50
2018-06-21T14:40:23.496Z,1.60
2018-06-21T14:42:51.131Z,1.63
2018-06-21T14:45:18.703Z,1.50
2018-06-21T14:47:46.309Z,1.30
2018-06-21T14:50:13.914Z,1.20
2018-06-21T14:52:41.548Z,1.30
2018-06-21T14:55:09.132Z,1.20
2018-06-21T14:57:36.705Z,1.27
2018-06-21T15:00:04.389Z,1.50
2018-06-21T15:02:31.986Z,1.90
2018-06-21T15:04:59.562Z,1.47
2018-06-21T15:07:27.151Z,1.30
2018-06-21T15:09:54.860Z,1.20
2018-06-21T15:12:22.442Z,1.40
2018-06-21T15:14:50.052Z,1.60
2018-06-21T15:17:17.632Z,1.50
2018-06-21T15:19:45.218Z,1.90
2018-06-21T15:22:12.800Z,2.30
2018-06-21T15:24:42.519Z,2.17
2018-06-21T15:27:10.089Z,2.00
2018-06-21T15:29:37.653Z,2.00
2018-06-21T15:32:05.233Z,2.20
2018-06-21T15:34:32.862Z,1.70
2018-06-21T15:37:00.524Z,1.57
2018-06-21T15:39:28.170Z,1.90
2018-06-21T15:41:55.767Z,1.50
2018-06-21T15:44:23.369Z,1.50
2018-06-21T15:46:50.973Z,1.70
2018-06-21T15:49:18.572Z,1.50
2018-06-21T15:51:46.173Z,1.60
2018-06-21T15:54:13.751Z,1.40
2018-06-21T15:56:41.332Z,1.40
2018-06-21T15:59:09.116Z,1.40
2018-06-21T16:01:36.769Z,1.20
2018-06-21T16:04:04.397Z,1.27
2018-06-21T16:06:32.221Z,1.20
2018-06-21T16:08:59.816Z,1.20
2018-06-21T16:11:27.414Z,1.33
2018-06-21T16:13:55.028Z,1.13
2018-06-21T16:16:22.644Z,1.40
2018-06-21T16:18:50.219Z,1.60
2018-06-21T16:21:18.236Z,1.10
2018-06-21T16:23:45.840Z,1.10
2018-06-21T16:26:13.468Z,1.00
2018-06-21T16:28:41.161Z,1.40
2018-06-21T16:31:09.167Z,1.10
2018-06-21T16:33:36.885Z,1.47
2018-06-21T16:36:04.912Z,0.93
2018-06-21T16:38:32.465Z,1.17
2018-06-21T16:41:00.262Z,1.23
2018-06-21T16:43:27.752Z,1.33
2018-06-21T16:45:55.279Z,1.37
2018-06-21T16:48:23.001Z,1.30
2018-06-21T16:50:50.606Z,1.20
2018-06-21T16:53:18.192Z,1.03
2018-06-21T16:55:45.765Z,1.30
2018-06-21T16:58:13.386Z,1.17
2018-06-21T17:00:41.038Z,1.40
2018-06-21T17:03:08.623Z,1.30
2018-06-21T17:05:37.293Z,1.30
2018-06-21T17:08:04.989Z,1.40
2018-06-21T17:10:32.760Z,1.30
2018-06-21T17:13:00.319Z,1.10
2018-06-21T17:15:27.946Z,1.13
2018-06-21T17:17:59.456Z,1.33
2018-06-21T17:20:27.107Z,1.10
2018-06-21T17:22:55.414Z,1.30
2018-06-21T17:25:23.091Z,1.13
2018-06-21T17:27:52.097Z,1.40
2018-06-21T17:30:19.697Z,1.60
2018-06-21T17:32:47.260Z,1.37
2018-06-21T17:35:18.872Z,1.27
2018-06-21T17:37:46.468Z,1.40
2018-06-21T17:40:14.077Z,1.43
2018-06-21T17:42:41.699Z,1.50
2018-06-21T17:45:09.356Z,1.70
2018-06-21T17:47:36.973Z,1.70
2018-06-21T17:50:05.161Z,1.67
2018-06-21T17:52:32.704Z,1.50
2018-06-21T17:55:00.295Z,1.73
2018-06-21T17:57:27.909Z,1.70
2018-06-21T17:59:56.101Z,2.00
2018-06-21T18:02:23.750Z,1.77
2018-06-21T18:04:51.372Z,2.00
2018-06-21T18:07:18.986Z,1.37
2018-06-21T18:09:46.619Z,1.93
2018-06-21T18:12:14.297Z,1.50
2018-06-21T18:14:41.962Z,1.50
2018-06-21T18:17:11.681Z,1.53
2018-06-21T18:19:44.313Z,1.33
2018-06-21T18:22:11.946Z,1.40
2018-06-21T18:24:39.588Z,1.40
2018-06-21T18:27:07.200Z,1.30
2018-06-21T18:29:34.817Z,1.57
2018-06-21T18:32:02.433Z,1.20
2018-06-21T18:34:30.081Z,1.57
2018-06-21T18:36:57.671Z,1.10
2018-06-21T18:39:25.395Z,1.00
2018-06-21T18:41:53.123Z,0.80
2018-06-21T18:44:24.736Z,1.53
2018-06-21T18:46:52.416Z,1.10
2018-06-21T18:49:20.044Z,1.30
2018-06-21T18:51:47.610Z,0.90
2018-06-21T18:54:15.341Z,1.00
2018-06-21T18:56:43.308Z,0.80
2018-06-21T18:59:12.031Z,1.00
2018-06-21T19:01:39.823Z,0.97
2018-06-21T19:04:07.475Z,0.73
2018-06-21T19:06:40.773Z,0.97
2018-06-21T19:09:14.271Z,0.53
2018-06-21T19:11:47.528Z,0.83
2018-06-21T19:14:15.209Z,0.80
2018-06-21T19:16:43.108Z,0.90
2018-06-21T19:19:10.740Z,0.93
2018-06-21T19:21:38.328Z,0.97
2018-06-21T19:24:05.991Z,0.60
2018-06-21T19:26:34.170Z,0.90
2018-06-21T19:29:02.829Z,1.00
2018-06-21T19:31:30.421Z,0.83
2018-06-21T19:33:58.027Z,1.10
2018-06-21T19:36:25.646Z,0.90
2018-06-21T19:38:53.292Z,0.70
2018-06-21T19:41:20.838Z,0.90
2018-06-21T19:43:48.442Z,0.97
2018-06-21T19:46:16.052Z,1.00
2018-06-21T19:48:44.433Z,1.00
2018-06-21T19:51:12.022Z,1.00
2018-06-21T19:53:39.827Z,0.97
2018-06-21T19:56:07.717Z,1.00
2018-06-21T19:58:35.431Z,1.27
2018-06-21T20:01:03.070Z,0.80
2018-06-21T20:03:30.638Z,1.00
2018-06-21T20:05:58.381Z,1.17
2018-06-21T20:08:26.020Z,0.90
2018-06-21T20:10:59.462Z,1.10
2018-06-21T20:13:28.000Z,1.43
2018-06-21T20:15:55.712Z,1.00
2018-06-21T20:18:23.500Z,0.97
2018-06-21T20:20:51.140Z,0.90
2018-06-21T20:23:19.977Z,1.10
2018-06-21T20:25:47.552Z,0.83
2018-06-21T20:28:15.508Z,0.80
2018-06-21T20:30:43.099Z,1.10
2018-06-21T20:33:10.723Z,0.70
2018-06-21T20:35:38.387Z,0.77
2018-06-21T20:38:08.068Z,0.67
2018-06-21T20:40:41.474Z,0.63
2018-06-21T20:43:09.113Z,1.00
2018-06-21T20:45:37.531Z,0.80
2018-06-21T20:48:05.234Z,0.70
2018-06-21T20:50:33.003Z,0.67
2018-06-21T20:53:00.795Z,0.70
2018-06-21T20:55:28.582Z,0.80
2018-06-21T20:57:56.255Z,1.03
2018-06-21T21:00:23.836Z,1.00
2018-06-21T21:02:51.709Z,1.13
2018-06-21T21:05:19.292Z,1.00
2018-06-21T21:07:48.236Z,1.37
2018-06-21T21:10:17.000Z,0.77
2018-06-21T21:12:44.744Z,0.67
2018-06-21T21:15:13.160Z,0.83
2018-06-21T21:17:41.062Z,0.93
2018-06-21T21:20:09.280Z,0.57
2018-06-21T21:22:37.805Z,0.70
2018-06-21T21:25:05.564Z,1.13
2018-06-21T21:27:33.438Z,1.00
2018-06-21T21:30:01.046Z,0.63
2018-06-21T21:32:28.659Z,0.57
2018-06-21T21:34:57.873Z,0.60
2018-06-21T21:37:25.872Z,0.67
2018-06-21T21:39:57.780Z,0.60
2018-06-21T21:42:26.025Z,0.60
2018-06-21T21:44:53.758Z,1.23
2018-06-21T21:47:21.384Z,0.60
2018-06-21T21:49:48.990Z,0.63
2018-06-21T21:52:16.596Z,0.70
2018-06-21T21:54:44.809Z,0.57
2018-06-21T21:57:12.989Z,1.00
2018-06-21T21:59:40.686Z,1.00
2018-06-21T22:02:08.325Z,0.67
2018-06-21T22:04:35.940Z,0.70
2018-06-21T22:07:03.684Z,1.00
2018-06-21T22:09:31.272Z,0.70
2018-06-21T22:11:58.865Z,0.60
2018-06-21T22:14:26.797Z,1.00
2018-06-21T22:16:54.413Z,0.90
2018-06-21T22:19:22.035Z,0.70
2018-06-21T22:21:49.788Z,0.90
2018-06-21T22:24:17.452Z,1.10
2018-06-21T22:26:45.092Z,1.03
2018-06-21T22:29:12.761Z,0.97
2018-06-21T22:31:40.351Z,0.63
2018-06-21T22:34:08.016Z,0.93
2018-06-21T22:36:35.600Z,0.83
2018-06-21T22:39:05.205Z,0.93
2018-06-21T22:41:32.827Z,0.70
2018-06-21T22:44:00.380Z,0.70
2018-06-21T22:46:27.956Z,0.50
2018-06-21T22:48:55.584Z,0.67
2018-06-21T22:51:23.157Z,0.70
2018-06-21T22:53:50.787Z,0.70
2018-06-21T22:56:18.380Z,0.63
2018-06-21T22:58:45.959Z,0.67
2018-06-21T23:01:13.617Z,0.80
2018-06-21T23:03:41.259Z,0.60
2018-06-21T23:06:08.885Z,0.60
2018-06-21T23:08:38.746Z,0.50
2018-06-21T23:11:06.332Z,1.00
2018-06-21T23:13:33.987Z,0.90
2018-06-21T23:16:02.220Z,0.77
2018-06-21T23:18:41.432Z,1.20
2018-06-21T23:21:09.269Z,0.70
2018-06-21T23:23:37.119Z,1.03
2018-06-21T23:26:04.673Z,0.80
2018-06-21T23:28:32.697Z,1.10
2018-06-21T23:31:00.452Z,0.50
2018-06-21T23:33:28.141Z,1.10
2018-06-21T23:35:55.709Z,0.90
2018-06-21T23:38:23.334Z,0.90
2018-06-21T23:40:51.128Z,1.00
2018-06-21T23:43:19.817Z,0.83
2018-06-21T23:45:47.368Z,0.70
2018-06-21T23:48:15.016Z,0.83
2018-06-21T23:50:42.799Z,1.37
2018-06-21T23:53:10.404Z,1.40
2018-06-21T23:55:38.028Z,1.00
2018-06-21T23:58:05.673Z,0.83
